ADDS METAR Data INFO
IDs: Format: Raw Decoded Include TAF

Data at: 1950 UTC 15 Dec 2017

KESF 151853Z AUTO 05003KT 10SM CLR 09/M02 A3026 RMK AO2 SLP246 T00891017
KESF 151753Z AUTO VRB03KT 10SM CLR 08/M01 A3028 RMK AO2 SLP254 T00831006 10083 20039 50001
KESF 151653Z AUTO 00000KT 10SM CLR 07/M01 A3031 RMK AO2 SLP265 T00671006
KESF 151553Z AUTO 00000KT 10SM CLR 06/00 A3031 RMK AO2 SLP263 T00560000
KESF 151453Z AUTO 36003KT 10SM FEW120 05/01 A3028 RMK AO2 SLP253 T00500006
KESF 151353Z AUTO 00000KT 10SM 04/01 A3023 RMK AO2 SLP235 T00390006
KESF 151253Z AUTO VRB03KT 10SM CLR 04/01 A3020 RMK AO2 SLP226 T00390006
KESF 151153Z AUTO VRB03KT 10SM CLR 04/01 A3018 RMK AO2 SLP220 T00440011 10061 20039 51014
KESF 151053Z AUTO VRB03KT 10SM CLR 05/02 A3017 RMK AO2 SLP217 T00500017
KESF 150953Z AUTO 01003KT 10SM CLR 05/02 A3015 RMK AO2 SLP209 T00500022
KESF 150853Z AUTO VRB03KT 10SM CLR 06/02 A3014 RMK AO2 SLP206 T00560022 53014
KESF 150753Z AUTO VRB03KT 10SM CLR 06/03 A3012 RMK AO2 SLP198 T00610028
KESF 150653Z AUTO 00000KT 10SM CLR 04/03 A3011 RMK AO2 SLP194 T00390033
KESF 150553Z AUTO 00000KT 10SM CLR 05/04 A3010 RMK AO2 SLP192 T00500044 10083 20039 401331011 51015
KESF 150453Z AUTO 36003KT 10SM CLR 06/04 A3009 RMK AO2 SLP190 T00560044
KESF 150353Z AUTO 00000KT 5SM BR CLR 04/04 A3008 RMK AO2 SLP185 T00440044
KESF 150253Z AUTO 00000KT 7SM CLR 05/05 A3005 RMK AO2 SLP176 T00500050 51018
KESF 150153Z AUTO 00000KT 6SM BR CLR 06/06 A3005 RMK AO2 SLP175 T00560056
KESF 150053Z AUTO 00000KT 9SM CLR 07/06 A3003 RMK AO2 SLP167 T00670061
KESF 142353Z AUTO 00000KT 10SM CLR 08/07 A3000 RMK AO2 SLP159 T00830072 10133 20083 53012
KESF 142253Z AUTO 00000KT 10SM CLR 10/07 A2999 RMK AO2 SLP155 T01000072
KESF 142153Z AUTO 00000KT 10SM CLR 13/07 A2997 RMK AO2 SLP150 T01280067
KESF 142053Z AUTO 18003KT 10SM CLR 13/05 A2997 RMK AO2 SLP147 T01330050 56010
KESF 141953Z AUTO 00000KT 10SM CLR 13/05 A2997 RMK AO2 SLP148 T01280050
KESF 141853Z AUTO 00000KT 8SM CLR 13/05 A2998 RMK AO2 SLP151 T01280050
KESF 141753Z AUTO 00000KT 10SM CLR 13/05 A2999 RMK AO2 SLP157 I6001 T01280050 10128 21011 58002
KESF 141653Z AUTO 00000KT 10SM CLR 12/04 A3002 RMK AO2 SLP164 T01170044
KESF 141553Z AUTO 00000KT 10SM CLR 09/06 A3002 RMK AO2 SLP164 T00890056
KESF 141453Z AUTO 00000KT 10SM CLR 04/04 A3000 RMK AO2 SLP159 I3001 T00440039 53015
KESF 141353Z AUTO 00000KT 8SM CLR 01/01 A2998 RMK AO2 SLP152 I1001 T00110011
KESF 141253Z AUTO 00000KT 8SM CLR M01/M01 A2997 RMK AO2 SLP148 I1000 T10061006 $
KESF 141153Z AUTO 00000KT 7SM CLR M01/M01 A2995 RMK AO2 SLP143 I1000 I6000 T10061006 10033 21011 53002 $
KESF 141053Z AUTO 00000KT 7SM CLR M01/M01 A2995 RMK AO2 SLP141 T10061006 $
KESF 140953Z AUTO 00000KT 7SM CLR M01/M01 A2995 RMK AO2 SLP141 T10061006 $
KESF 140853Z AUTO 00000KT 5SM BR CLR 01/01 A2995 RMK AO2 SLP141 T00060006 55004 $
KESF 140753Z AUTO 00000KT 8SM CLR 01/01 A2995 RMK AO2 SLP141 T00110011 $